sensor_id;sensor_type;location;lat;lon;timestamp;P1;durP1;ratioP1;P2;durP2;ratioP2
42886;SDS011;29032;56.028;92.904;2022-12-18T00:00:16;48.17;;;16.37;;
42886;SDS011;29032;56.028;92.904;2022-12-18T00:05:19;41.57;;;17.17;;
42886;SDS011;29032;56.028;92.904;2022-12-18T00:10:22;44.37;;;16.13;;
42886;SDS011;29032;56.028;92.904;2022-12-18T00:15:25;46.43;;;18.13;;
42886;SDS011;29032;56.028;92.904;2022-12-18T00:20:28;41.07;;;15.57;;
42886;SDS011;29032;56.028;92.904;2022-12-18T00:25:32;41.27;;;14.73;;
42886;SDS011;29032;56.028;92.904;2022-12-18T00:30:36;39.87;;;15.10;;
42886;SDS011;29032;56.028;92.904;2022-12-18T00:35:38;35.50;;;13.13;;
42886;SDS011;29032;56.028;92.904;2022-12-18T00:40:40;35.37;;;12.60;;
42886;SDS011;29032;56.028;92.904;2022-12-18T00:45:44;37.00;;;12.67;;
42886;SDS011;29032;56.028;92.904;2022-12-18T00:50:47;34.90;;;12.77;;
42886;SDS011;29032;56.028;92.904;2022-12-18T00:55:49;42.53;;;14.97;;
42886;SDS011;29032;56.028;92.904;2022-12-18T01:00:53;43.23;;;14.67;;
42886;SDS011;29032;56.028;92.904;2022-12-18T01:05:55;46.07;;;15.43;;
42886;SDS011;29032;56.028;92.904;2022-12-18T01:10:57;54.30;;;17.57;;
42886;SDS011;29032;56.028;92.904;2022-12-18T01:16:01;34.57;;;11.93;;
42886;SDS011;29032;56.028;92.904;2022-12-18T01:21:05;43.83;;;15.07;;
42886;SDS011;29032;56.028;92.904;2022-12-18T01:26:09;32.60;;;12.30;;
42886;SDS011;29032;56.028;92.904;2022-12-18T01:31:15;31.57;;;11.37;;
42886;SDS011;29032;56.028;92.904;2022-12-18T01:41:22;17.20;;;6.50;;
42886;SDS011;29032;56.028;92.904;2022-12-18T01:46:27;17.57;;;7.10;;
42886;SDS011;29032;56.028;92.904;2022-12-18T01:51:31;17.93;;;7.40;;
42886;SDS011;29032;56.028;92.904;2022-12-18T01:56:33;17.23;;;7.17;;
42886;SDS011;29032;56.028;92.904;2022-12-18T02:01:36;25.87;;;9.17;;
42886;SDS011;29032;56.028;92.904;2022-12-18T02:06:40;38.90;;;12.73;;
42886;SDS011;29032;56.028;92.904;2022-12-18T02:11:44;42.60;;;13.00;;
42886;SDS011;29032;56.028;92.904;2022-12-18T02:16:57;33.50;;;13.43;;
42886;SDS011;29032;56.028;92.904;2022-12-18T02:22:07;35.67;;;12.87;;
42886;SDS011;29032;56.028;92.904;2022-12-18T02:27:24;28.60;;;9.97;;
42886;SDS011;29032;56.028;92.904;2022-12-18T02:32:28;19.50;;;8.47;;
42886;SDS011;29032;56.028;92.904;2022-12-18T02:37:33;21.20;;;8.77;;
42886;SDS011;29032;56.028;92.904;2022-12-18T02:42:40;25.03;;;7.97;;
42886;SDS011;29032;56.028;92.904;2022-12-18T02:52:53;27.47;;;9.30;;
42886;SDS011;29032;56.028;92.904;2022-12-18T02:58:09;31.57;;;10.37;;
42886;SDS011;29032;56.028;92.904;2022-12-18T03:03:19;32.20;;;11.50;;
42886;SDS011;29032;56.028;92.904;2022-12-18T03:08:27;31.87;;;11.80;;
42886;SDS011;29032;56.028;92.904;2022-12-18T03:13:35;27.30;;;11.02;;
42886;SDS011;29032;56.028;92.904;2022-12-18T03:18:42;31.38;;;11.68;;
42886;SDS011;29032;56.028;92.904;2022-12-18T03:23:49;30.03;;;11.87;;
42886;SDS011;29032;56.028;92.904;2022-12-18T03:28:59;28.60;;;10.23;;
42886;SDS011;29032;56.028;92.904;2022-12-18T03:34:08;26.17;;;9.70;;
42886;SDS011;29032;56.028;92.904;2022-12-18T03:39:19;26.67;;;10.03;;
42886;SDS011;29032;56.028;92.904;2022-12-18T03:44:31;20.33;;;8.83;;
42886;SDS011;29032;56.028;92.904;2022-12-18T03:49:44;10.80;;;5.33;;
42886;SDS011;29032;56.028;92.904;2022-12-18T03:54:50;13.57;;;5.73;;
42886;SDS011;29032;56.028;92.904;2022-12-18T03:59:56;10.07;;;5.33;;
42886;SDS011;29032;56.028;92.904;2022-12-18T04:05:04;8.43;;;4.30;;
42886;SDS011;29032;56.028;92.904;2022-12-18T04:10:12;6.30;;;3.37;;
42886;SDS011;29032;56.028;92.904;2022-12-18T04:15:18;6.30;;;2.80;;
42886;SDS011;29032;56.028;92.904;2022-12-18T04:20:20;7.63;;;4.00;;
42886;SDS011;29032;56.028;92.904;2022-12-18T04:25:23;4.60;;;2.97;;
42886;SDS011;29032;56.028;92.904;2022-12-18T04:30:38;4.83;;;2.57;;
42886;SDS011;29032;56.028;92.904;2022-12-18T04:35:40;7.97;;;3.40;;
42886;SDS011;29032;56.028;92.904;2022-12-18T04:40:43;7.97;;;3.20;;
42886;SDS011;29032;56.028;92.904;2022-12-18T04:46:02;7.20;;;3.23;;
42886;SDS011;29032;56.028;92.904;2022-12-18T04:51:05;7.47;;;3.87;;
42886;SDS011;29032;56.028;92.904;2022-12-18T04:56:09;9.67;;;4.17;;
42886;SDS011;29032;56.028;92.904;2022-12-18T05:01:14;7.90;;;4.30;;
42886;SDS011;29032;56.028;92.904;2022-12-18T05:06:17;8.13;;;3.93;;
42886;SDS011;29032;56.028;92.904;2022-12-18T05:11:19;8.20;;;3.73;;
42886;SDS011;29032;56.028;92.904;2022-12-18T05:16:23;6.70;;;3.20;;
42886;SDS011;29032;56.028;92.904;2022-12-18T05:21:25;6.60;;;3.30;;
42886;SDS011;29032;56.028;92.904;2022-12-18T05:26:27;8.13;;;4.20;;
42886;SDS011;29032;56.028;92.904;2022-12-18T05:31:30;6.93;;;3.63;;
42886;SDS011;29032;56.028;92.904;2022-12-18T05:36:33;10.87;;;3.93;;
42886;SDS011;29032;56.028;92.904;2022-12-18T05:41:35;6.73;;;3.37;;
42886;SDS011;29032;56.028;92.904;2022-12-18T05:46:41;6.93;;;3.37;;
42886;SDS011;29032;56.028;92.904;2022-12-18T05:51:43;7.10;;;3.63;;
42886;SDS011;29032;56.028;92.904;2022-12-18T05:56:45;8.70;;;4.10;;
42886;SDS011;29032;56.028;92.904;2022-12-18T06:01:49;8.60;;;4.50;;
42886;SDS011;29032;56.028;92.904;2022-12-18T06:06:51;8.67;;;4.20;;
42886;SDS011;29032;56.028;92.904;2022-12-18T06:11:53;8.07;;;3.93;;
42886;SDS011;29032;56.028;92.904;2022-12-18T06:16:57;10.33;;;4.57;;
42886;SDS011;29032;56.028;92.904;2022-12-18T06:21:59;8.50;;;3.90;;
42886;SDS011;29032;56.028;92.904;2022-12-18T06:27:01;11.87;;;5.17;;
42886;SDS011;29032;56.028;92.904;2022-12-18T06:32:04;12.23;;;5.47;;
42886;SDS011;29032;56.028;92.904;2022-12-18T06:37:07;10.57;;;4.93;;
42886;SDS011;29032;56.028;92.904;2022-12-18T06:42:09;12.53;;;6.17;;
42886;SDS011;29032;56.028;92.904;2022-12-18T06:47:13;16.10;;;7.27;;
42886;SDS011;29032;56.028;92.904;2022-12-18T06:52:15;13.33;;;6.07;;
42886;SDS011;29032;56.028;92.904;2022-12-18T06:57:17;7.77;;;4.63;;
42886;SDS011;29032;56.028;92.904;2022-12-18T07:02:21;8.87;;;4.50;;
42886;SDS011;29032;56.028;92.904;2022-12-18T07:07:23;11.50;;;5.27;;
42886;SDS011;29032;56.028;92.904;2022-12-18T07:12:26;10.17;;;5.17;;
42886;SDS011;29032;56.028;92.904;2022-12-18T07:17:30;15.03;;;6.23;;
42886;SDS011;29032;56.028;92.904;2022-12-18T07:22:32;11.47;;;6.30;;
42886;SDS011;29032;56.028;92.904;2022-12-18T07:27:34;8.90;;;5.43;;
42886;SDS011;29032;56.028;92.904;2022-12-18T07:32:38;13.33;;;7.00;;
42886;SDS011;29032;56.028;92.904;2022-12-18T07:37:40;13.63;;;6.63;;
42886;SDS011;29032;56.028;92.904;2022-12-18T07:42:42;17.90;;;8.23;;
42886;SDS011;29032;56.028;92.904;2022-12-18T07:47:46;17.60;;;9.70;;
42886;SDS011;29032;56.028;92.904;2022-12-18T07:52:48;23.30;;;10.43;;
42886;SDS011;29032;56.028;92.904;2022-12-18T07:57:50;16.50;;;7.90;;
42886;SDS011;29032;56.028;92.904;2022-12-18T08:02:54;17.93;;;8.90;;
42886;SDS011;29032;56.028;92.904;2022-12-18T08:07:56;14.97;;;7.40;;
42886;SDS011;29032;56.028;92.904;2022-12-18T08:12:59;14.87;;;7.33;;
42886;SDS011;29032;56.028;92.904;2022-12-18T08:18:03;17.70;;;8.43;;
42886;SDS011;29032;56.028;92.904;2022-12-18T08:23:05;13.53;;;7.17;;
42886;SDS011;29032;56.028;92.904;2022-12-18T08:28:07;14.23;;;8.10;;
42886;SDS011;29032;56.028;92.904;2022-12-18T08:33:11;11.10;;;6.53;;
42886;SDS011;29032;56.028;92.904;2022-12-18T08:38:13;14.17;;;7.93;;
42886;SDS011;29032;56.028;92.904;2022-12-18T08:43:16;19.73;;;8.10;;
42886;SDS011;29032;56.028;92.904;2022-12-18T08:48:20;18.37;;;8.40;;
42886;SDS011;29032;56.028;92.904;2022-12-18T08:53:25;19.33;;;9.17;;
42886;SDS011;29032;56.028;92.904;2022-12-18T08:58:27;19.93;;;9.00;;
42886;SDS011;29032;56.028;92.904;2022-12-18T09:03:31;18.70;;;8.50;;
42886;SDS011;29032;56.028;92.904;2022-12-18T09:08:33;20.50;;;8.60;;
42886;SDS011;29032;56.028;92.904;2022-12-18T09:13:35;21.73;;;7.83;;
42886;SDS011;29032;56.028;92.904;2022-12-18T09:18:39;17.60;;;8.63;;
42886;SDS011;29032;56.028;92.904;2022-12-18T09:23:42;20.73;;;9.57;;
42886;SDS011;29032;56.028;92.904;2022-12-18T09:28:44;23.17;;;10.17;;
42886;SDS011;29032;56.028;92.904;2022-12-18T09:33:48;28.17;;;11.00;;
42886;SDS011;29032;56.028;92.904;2022-12-18T09:38:50;23.77;;;9.27;;
42886;SDS011;29032;56.028;92.904;2022-12-18T09:43:52;21.50;;;8.83;;
42886;SDS011;29032;56.028;92.904;2022-12-18T09:49:00;23.70;;;9.37;;
42886;SDS011;29032;56.028;92.904;2022-12-18T09:54:06;18.97;;;8.37;;
42886;SDS011;29032;56.028;92.904;2022-12-18T09:59:24;16.53;;;7.87;;
42886;SDS011;29032;56.028;92.904;2022-12-18T10:04:30;15.80;;;6.77;;
42886;SDS011;29032;56.028;92.904;2022-12-18T10:09:34;12.67;;;5.80;;
42886;SDS011;29032;56.028;92.904;2022-12-18T10:14:43;15.20;;;7.13;;
42886;SDS011;29032;56.028;92.904;2022-12-18T10:19:54;21.70;;;7.30;;
42886;SDS011;29032;56.028;92.904;2022-12-18T10:25:01;14.07;;;7.53;;
42886;SDS011;29032;56.028;92.904;2022-12-18T10:30:12;13.17;;;6.07;;
42886;SDS011;29032;56.028;92.904;2022-12-18T10:35:18;20.13;;;7.60;;
42886;SDS011;29032;56.028;92.904;2022-12-18T10:40:22;13.52;;;6.45;;
42886;SDS011;29032;56.028;92.904;2022-12-18T10:45:24;16.77;;;7.10;;
42886;SDS011;29032;56.028;92.904;2022-12-18T10:50:28;16.87;;;8.07;;
42886;SDS011;29032;56.028;92.904;2022-12-18T10:55:33;16.85;;;7.20;;
42886;SDS011;29032;56.028;92.904;2022-12-18T11:00:38;17.60;;;7.57;;
42886;SDS011;29032;56.028;92.904;2022-12-18T11:05:42;18.07;;;7.10;;
42886;SDS011;29032;56.028;92.904;2022-12-18T11:10:45;18.97;;;8.00;;
42886;SDS011;29032;56.028;92.904;2022-12-18T11:15:48;17.43;;;8.00;;
42886;SDS011;29032;56.028;92.904;2022-12-18T11:20:53;19.23;;;7.80;;
42886;SDS011;29032;56.028;92.904;2022-12-18T11:26:01;15.90;;;7.57;;
42886;SDS011;29032;56.028;92.904;2022-12-18T11:31:09;19.80;;;9.63;;
42886;SDS011;29032;56.028;92.904;2022-12-18T11:36:21;15.77;;;7.90;;
42886;SDS011;29032;56.028;92.904;2022-12-18T11:41:24;19.07;;;6.97;;
42886;SDS011;29032;56.028;92.904;2022-12-18T11:46:33;18.00;;;7.43;;
42886;SDS011;29032;56.028;92.904;2022-12-18T11:51:41;22.17;;;8.60;;
42886;SDS011;29032;56.028;92.904;2022-12-18T11:56:50;20.17;;;8.20;;
42886;SDS011;29032;56.028;92.904;2022-12-18T12:01:58;18.57;;;10.07;;
42886;SDS011;29032;56.028;92.904;2022-12-18T12:07:23;27.77;;;9.03;;
42886;SDS011;29032;56.028;92.904;2022-12-18T12:12:35;19.93;;;8.73;;
42886;SDS011;29032;56.028;92.904;2022-12-18T12:17:45;19.10;;;8.23;;
42886;SDS011;29032;56.028;92.904;2022-12-18T12:22:58;19.10;;;7.57;;
42886;SDS011;29032;56.028;92.904;2022-12-18T12:28:11;23.63;;;8.27;;
42886;SDS011;29032;56.028;92.904;2022-12-18T12:33:23;19.43;;;7.57;;
42886;SDS011;29032;56.028;92.904;2022-12-18T12:38:37;17.73;;;6.50;;
42886;SDS011;29032;56.028;92.904;2022-12-18T12:43:43;18.43;;;8.10;;
42886;SDS011;29032;56.028;92.904;2022-12-18T12:48:48;19.40;;;8.77;;
42886;SDS011;29032;56.028;92.904;2022-12-18T12:53:54;18.93;;;6.80;;
42886;SDS011;29032;56.028;92.904;2022-12-18T12:58:59;18.33;;;7.30;;
42886;SDS011;29032;56.028;92.904;2022-12-18T13:04:14;20.03;;;7.97;;
42886;SDS011;29032;56.028;92.904;2022-12-18T13:09:24;16.80;;;7.70;;
42886;SDS011;29032;56.028;92.904;2022-12-18T13:14:31;19.90;;;8.13;;
42886;SDS011;29032;56.028;92.904;2022-12-18T13:19:35;15.47;;;7.27;;
42886;SDS011;29032;56.028;92.904;2022-12-18T13:24:39;16.27;;;6.90;;
42886;SDS011;29032;56.028;92.904;2022-12-18T13:29:41;13.70;;;7.40;;
42886;SDS011;29032;56.028;92.904;2022-12-18T13:34:45;21.07;;;7.83;;
42886;SDS011;29032;56.028;92.904;2022-12-18T13:39:48;19.80;;;7.83;;
42886;SDS011;29032;56.028;92.904;2022-12-18T13:44:50;19.17;;;7.40;;
42886;SDS011;29032;56.028;92.904;2022-12-18T13:49:54;17.83;;;7.57;;
42886;SDS011;29032;56.028;92.904;2022-12-18T13:54:59;19.10;;;8.07;;
42886;SDS011;29032;56.028;92.904;2022-12-18T14:00:23;19.60;;;8.30;;
42886;SDS011;29032;56.028;92.904;2022-12-18T14:05:28;24.90;;;8.47;;
42886;SDS011;29032;56.028;92.904;2022-12-18T14:10:33;19.27;;;9.07;;
42886;SDS011;29032;56.028;92.904;2022-12-18T14:15:38;19.57;;;7.80;;
42886;SDS011;29032;56.028;92.904;2022-12-18T14:20:43;20.53;;;8.30;;
42886;SDS011;29032;56.028;92.904;2022-12-18T14:25:47;19.93;;;7.67;;
42886;SDS011;29032;56.028;92.904;2022-12-18T14:30:49;20.33;;;8.40;;
42886;SDS011;29032;56.028;92.904;2022-12-18T14:35:53;18.80;;;8.30;;
42886;SDS011;29032;56.028;92.904;2022-12-18T14:40:59;15.60;;;6.97;;
42886;SDS011;29032;56.028;92.904;2022-12-18T14:46:02;17.40;;;7.03;;
42886;SDS011;29032;56.028;92.904;2022-12-18T14:51:06;16.53;;;6.97;;
42886;SDS011;29032;56.028;92.904;2022-12-18T14:56:19;16.13;;;7.80;;
42886;SDS011;29032;56.028;92.904;2022-12-18T15:01:25;17.08;;;7.03;;
42886;SDS011;29032;56.028;92.904;2022-12-18T15:06:33;15.87;;;7.30;;
42886;SDS011;29032;56.028;92.904;2022-12-18T15:11:47;18.60;;;7.10;;
42886;SDS011;29032;56.028;92.904;2022-12-18T15:16:50;17.37;;;6.47;;
42886;SDS011;29032;56.028;92.904;2022-12-18T15:21:54;14.33;;;6.73;;
42886;SDS011;29032;56.028;92.904;2022-12-18T15:26:58;21.80;;;7.80;;
42886;SDS011;29032;56.028;92.904;2022-12-18T15:32:01;18.53;;;7.90;;
42886;SDS011;29032;56.028;92.904;2022-12-18T15:37:06;18.60;;;8.03;;
42886;SDS011;29032;56.028;92.904;2022-12-18T15:42:10;17.03;;;7.60;;
42886;SDS011;29032;56.028;92.904;2022-12-18T15:47:13;19.80;;;8.77;;
42886;SDS011;29032;56.028;92.904;2022-12-18T15:52:15;20.23;;;8.20;;
42886;SDS011;29032;56.028;92.904;2022-12-18T15:57:18;17.93;;;7.70;;
42886;SDS011;29032;56.028;92.904;2022-12-18T16:02:21;16.37;;;7.10;;
42886;SDS011;29032;56.028;92.904;2022-12-18T16:07:23;20.37;;;8.87;;
42886;SDS011;29032;56.028;92.904;2022-12-18T16:12:26;16.37;;;6.80;;
42886;SDS011;29032;56.028;92.904;2022-12-18T16:17:29;14.57;;;7.03;;
42886;SDS011;29032;56.028;92.904;2022-12-18T16:22:31;12.73;;;6.07;;
42886;SDS011;29032;56.028;92.904;2022-12-18T16:27:35;24.67;;;8.73;;
42886;SDS011;29032;56.028;92.904;2022-12-18T16:32:37;19.63;;;8.37;;
42886;SDS011;29032;56.028;92.904;2022-12-18T16:37:40;19.07;;;7.70;;
42886;SDS011;29032;56.028;92.904;2022-12-18T16:42:45;20.17;;;7.97;;
42886;SDS011;29032;56.028;92.904;2022-12-18T16:47:48;20.93;;;9.60;;
42886;SDS011;29032;56.028;92.904;2022-12-18T16:52:50;18.87;;;8.30;;
42886;SDS011;29032;56.028;92.904;2022-12-18T16:57:53;15.00;;;6.53;;
42886;SDS011;29032;56.028;92.904;2022-12-18T17:02:55;17.20;;;8.10;;
42886;SDS011;29032;56.028;92.904;2022-12-18T17:07:58;17.03;;;7.47;;
42886;SDS011;29032;56.028;92.904;2022-12-18T17:13:01;21.80;;;7.90;;
42886;SDS011;29032;56.028;92.904;2022-12-18T17:18:03;19.73;;;8.50;;
42886;SDS011;29032;56.028;92.904;2022-12-18T17:23:05;21.33;;;8.33;;
42886;SDS011;29032;56.028;92.904;2022-12-18T17:28:09;18.87;;;7.53;;
42886;SDS011;29032;56.028;92.904;2022-12-18T17:33:11;15.60;;;7.17;;
42886;SDS011;29032;56.028;92.904;2022-12-18T17:38:13;15.33;;;6.63;;
42886;SDS011;29032;56.028;92.904;2022-12-18T17:43:19;15.73;;;7.03;;
42886;SDS011;29032;56.028;92.904;2022-12-18T17:48:21;17.97;;;6.30;;
42886;SDS011;29032;56.028;92.904;2022-12-18T17:53:23;13.50;;;5.87;;
42886;SDS011;29032;56.028;92.904;2022-12-18T17:58:27;13.67;;;5.77;;
42886;SDS011;29032;56.028;92.904;2022-12-18T18:03:30;15.70;;;6.77;;
42886;SDS011;29032;56.028;92.904;2022-12-18T18:08:33;14.27;;;6.47;;
42886;SDS011;29032;56.028;92.904;2022-12-18T18:13:37;16.30;;;6.47;;
42886;SDS011;29032;56.028;92.904;2022-12-18T18:18:39;16.60;;;7.33;;
42886;SDS011;29032;56.028;92.904;2022-12-18T18:23:42;18.37;;;7.40;;
42886;SDS011;29032;56.028;92.904;2022-12-18T18:28:45;13.73;;;6.63;;
42886;SDS011;29032;56.028;92.904;2022-12-18T18:33:47;15.30;;;6.83;;
42886;SDS011;29032;56.028;92.904;2022-12-18T18:38:49;16.43;;;7.13;;
42886;SDS011;29032;56.028;92.904;2022-12-18T18:43:54;13.30;;;7.40;;
42886;SDS011;29032;56.028;92.904;2022-12-18T18:48:57;15.30;;;8.00;;
42886;SDS011;29032;56.028;92.904;2022-12-18T18:53:59;12.37;;;6.77;;
42886;SDS011;29032;56.028;92.904;2022-12-18T18:59:03;16.43;;;7.03;;
42886;SDS011;29032;56.028;92.904;2022-12-18T19:04:05;13.37;;;6.30;;
42886;SDS011;29032;56.028;92.904;2022-12-18T19:09:07;12.50;;;6.10;;
42886;SDS011;29032;56.028;92.904;2022-12-18T19:14:11;13.67;;;6.70;;
42886;SDS011;29032;56.028;92.904;2022-12-18T19:19:15;9.07;;;5.53;;
42886;SDS011;29032;56.028;92.904;2022-12-18T19:24:17;14.17;;;6.60;;
42886;SDS011;29032;56.028;92.904;2022-12-18T19:29:20;12.53;;;6.50;;
42886;SDS011;29032;56.028;92.904;2022-12-18T19:34:23;10.77;;;5.10;;
42886;SDS011;29032;56.028;92.904;2022-12-18T19:39:25;9.60;;;5.23;;
42886;SDS011;29032;56.028;92.904;2022-12-18T19:44:28;10.63;;;5.00;;
42886;SDS011;29032;56.028;92.904;2022-12-18T19:49:30;10.87;;;5.40;;
42886;SDS011;29032;56.028;92.904;2022-12-18T19:54:33;11.53;;;5.50;;
42886;SDS011;29032;56.028;92.904;2022-12-18T19:59:36;17.13;;;6.37;;
42886;SDS011;29032;56.028;92.904;2022-12-18T20:04:38;12.77;;;6.47;;
42886;SDS011;29032;56.028;92.904;2022-12-18T20:09:40;14.40;;;5.73;;
42886;SDS011;29032;56.028;92.904;2022-12-18T20:14:44;13.40;;;5.53;;
42886;SDS011;29032;56.028;92.904;2022-12-18T20:19:46;13.10;;;6.47;;
42886;SDS011;29032;56.028;92.904;2022-12-18T20:24:48;11.83;;;5.67;;
42886;SDS011;29032;56.028;92.904;2022-12-18T20:29:52;11.27;;;5.90;;
42886;SDS011;29032;56.028;92.904;2022-12-18T20:34:54;12.43;;;6.67;;
42886;SDS011;29032;56.028;92.904;2022-12-18T20:39:56;12.63;;;5.97;;
42886;SDS011;29032;56.028;92.904;2022-12-18T20:45:00;11.53;;;5.63;;
42886;SDS011;29032;56.028;92.904;2022-12-18T20:50:02;11.87;;;6.53;;
42886;SDS011;29032;56.028;92.904;2022-12-18T20:55:06;10.00;;;4.60;;
42886;SDS011;29032;56.028;92.904;2022-12-18T21:00:10;11.27;;;4.90;;
42886;SDS011;29032;56.028;92.904;2022-12-18T21:05:14;10.27;;;5.60;;
42886;SDS011;29032;56.028;92.904;2022-12-18T21:10:16;9.30;;;4.80;;
42886;SDS011;29032;56.028;92.904;2022-12-18T21:15:20;11.43;;;5.63;;
42886;SDS011;29032;56.028;92.904;2022-12-18T21:20:22;13.77;;;6.67;;
42886;SDS011;29032;56.028;92.904;2022-12-18T21:25:24;12.83;;;5.53;;
42886;SDS011;29032;56.028;92.904;2022-12-18T21:30:27;13.17;;;5.53;;
42886;SDS011;29032;56.028;92.904;2022-12-18T21:35:30;9.80;;;4.80;;
42886;SDS011;29032;56.028;92.904;2022-12-18T21:40:32;13.23;;;5.80;;
42886;SDS011;29032;56.028;92.904;2022-12-18T21:45:35;9.43;;;5.30;;
42886;SDS011;29032;56.028;92.904;2022-12-18T21:50:37;13.33;;;4.93;;
42886;SDS011;29032;56.028;92.904;2022-12-18T21:55:40;7.30;;;4.43;;
42886;SDS011;29032;56.028;92.904;2022-12-18T22:00:43;8.17;;;4.53;;
42886;SDS011;29032;56.028;92.904;2022-12-18T22:05:45;13.07;;;6.23;;
42886;SDS011;29032;56.028;92.904;2022-12-18T22:10:48;13.20;;;6.17;;
42886;SDS011;29032;56.028;92.904;2022-12-18T22:15:51;10.23;;;5.87;;
42886;SDS011;29032;56.028;92.904;2022-12-18T22:21:02;12.50;;;5.63;;
42886;SDS011;29032;56.028;92.904;2022-12-18T22:26:06;14.27;;;5.37;;
42886;SDS011;29032;56.028;92.904;2022-12-18T22:31:10;13.83;;;6.13;;
42886;SDS011;29032;56.028;92.904;2022-12-18T22:36:12;12.87;;;6.33;;
42886;SDS011;29032;56.028;92.904;2022-12-18T22:41:14;15.17;;;5.87;;
42886;SDS011;29032;56.028;92.904;2022-12-18T22:46:18;10.27;;;5.63;;
42886;SDS011;29032;56.028;92.904;2022-12-18T22:51:24;10.40;;;5.97;;
42886;SDS011;29032;56.028;92.904;2022-12-18T22:56:26;16.43;;;6.87;;
42886;SDS011;29032;56.028;92.904;2022-12-18T23:01:30;17.93;;;7.10;;
42886;SDS011;29032;56.028;92.904;2022-12-18T23:06:33;23.40;;;7.30;;
42886;SDS011;29032;56.028;92.904;2022-12-18T23:11:35;17.87;;;7.37;;
42886;SDS011;29032;56.028;92.904;2022-12-18T23:16:38;11.53;;;6.47;;
42886;SDS011;29032;56.028;92.904;2022-12-18T23:21:40;11.70;;;5.23;;
42886;SDS011;29032;56.028;92.904;2022-12-18T23:26:42;15.40;;;5.43;;
42886;SDS011;29032;56.028;92.904;2022-12-18T23:31:46;11.43;;;5.67;;
42886;SDS011;29032;56.028;92.904;2022-12-18T23:36:48;11.07;;;5.87;;
42886;SDS011;29032;56.028;92.904;2022-12-18T23:41:50;11.37;;;5.13;;
42886;SDS011;29032;56.028;92.904;2022-12-18T23:46:54;16.13;;;6.67;;
42886;SDS011;29032;56.028;92.904;2022-12-18T23:51:56;34.13;;;7.50;;
42886;SDS011;29032;56.028;92.904;2022-12-18T23:56:58;13.27;;;6.70;;
